createdAt,value
2022-09-14T00:01:44.539Z,100552.42
2022-09-14T00:04:19.348Z,100558.12
2022-09-14T00:06:48.278Z,100556.07
2022-09-14T00:09:24.480Z,100555.55
2022-09-14T00:11:53.218Z,100553.80
2022-09-14T00:14:22.887Z,100548.12
2022-09-14T00:16:52.373Z,100549.14
2022-09-14T00:19:24.748Z,100548.92
2022-09-14T00:21:55.930Z,100548.39
2022-09-14T00:24:28.399Z,100547.99
2022-09-14T00:26:57.168Z,100548.78
2022-09-14T00:29:25.904Z,100544.59
2022-09-14T00:31:55.391Z,100538.89
2022-09-14T00:34:24.470Z,100543.63
2022-09-14T00:36:53.208Z,100539.62
2022-09-14T00:39:24.239Z,100543.34
2022-09-14T00:41:53.193Z,100548.09
2022-09-14T00:44:22.858Z,100554.49
2022-09-14T00:46:55.970Z,100552.07
2022-09-14T00:49:29.038Z,100549.08
2022-09-14T00:52:22.192Z,100549.05
2022-09-14T00:54:57.052Z,100544.20
2022-09-14T00:57:30.794Z,100542.83
2022-09-14T00:59:59.808Z,100541.30
2022-09-14T01:02:30.150Z,100533.73
2022-09-14T01:04:59.133Z,100531.59
2022-09-14T01:08:03.797Z,100532.20
2022-09-14T01:11:02.115Z,100531.62
2022-09-14T01:14:33.866Z,100526.64
2022-09-14T01:17:15.159Z,100527.91
2022-09-14T01:20:06.436Z,100526.38
2022-09-14T01:22:45.619Z,100523.74
2022-09-14T01:25:29.283Z,100520.42
2022-09-14T01:28:01.425Z,100519.20
2022-09-14T01:30:33.965Z,100519.53
2022-09-14T01:33:28.754Z,100514.20
2022-09-14T01:36:01.784Z,100504.04
2022-09-14T01:38:38.213Z,100503.24
2022-09-14T01:41:12.969Z,100498.03
2022-09-14T01:43:55.405Z,100499.08
2022-09-14T01:46:49.131Z,100497.63
2022-09-14T01:49:30.425Z,100499.48
2022-09-14T01:52:21.931Z,100498.77
2022-09-14T01:54:57.743Z,100497.69
2022-09-14T01:57:56.682Z,100500.52
2022-09-14T02:00:27.225Z,100499.38
2022-09-14T02:03:12.740Z,100493.02
2022-09-14T02:06:16.310Z,100492.40
2022-09-14T02:08:45.181Z,100477.65
2022-09-14T02:11:13.853Z,100474.41
2022-09-14T02:13:42.884Z,100471.56
2022-09-14T02:16:12.567Z,100471.73
2022-09-14T02:18:43.782Z,100481.91
2022-09-14T02:21:23.363Z,100483.80
2022-09-14T02:23:52.412Z,100482.88
2022-09-14T02:26:23.387Z,100485.91
2022-09-14T02:28:56.322Z,100481.50
2022-09-14T02:31:54.199Z,100484.70
2022-09-14T02:35:01.683Z,100484.52
2022-09-14T02:38:13.991Z,100486.89
2022-09-14T02:41:10.263Z,100487.27
2022-09-14T02:44:14.910Z,100484.86
2022-09-14T02:47:15.243Z,100485.05
2022-09-14T02:50:02.794Z,100485.33
2022-09-14T02:53:05.375Z,100489.61
2022-09-14T02:55:44.044Z,100484.48
2022-09-14T02:58:15.285Z,100479.86
2022-09-14T03:00:49.700Z,100481.40
2022-09-14T03:03:21.486Z,100486.58
2022-09-14T03:05:50.159Z,100486.94
2022-09-14T03:08:18.783Z,100484.00
2022-09-14T03:10:47.788Z,100483.40
2022-09-14T03:13:16.437Z,100487.58
2022-09-14T03:15:45.272Z,100491.36
2022-09-14T03:18:14.690Z,100497.52
2022-09-14T03:20:44.118Z,100490.16
2022-09-14T03:23:14.497Z,100492.31
2022-09-14T03:25:44.921Z,100486.90
2022-09-14T03:28:13.631Z,100485.94
2022-09-14T03:30:42.258Z,100483.11
2022-09-14T03:33:10.850Z,100483.53
2022-09-14T03:35:39.436Z,100487.31
2022-09-14T03:38:08.820Z,100496.17
2022-09-14T03:40:39.235Z,100497.63
2022-09-14T03:43:09.200Z,100498.59
2022-09-14T03:45:38.511Z,100499.05
2022-09-14T03:48:07.617Z,100498.20
2022-09-14T03:50:36.407Z,100501.66
2022-09-14T03:53:05.357Z,100499.48
2022-09-14T03:55:42.461Z,100499.58
2022-09-14T03:58:14.099Z,100500.08
2022-09-14T04:00:51.973Z,100495.90
2022-09-14T04:03:21.360Z,100495.43
2022-09-14T04:05:59.601Z,100496.11
2022-09-14T04:08:58.318Z,100494.15
2022-09-14T04:11:41.280Z,100492.89
2022-09-14T04:14:28.954Z,100490.88
2022-09-14T04:17:43.565Z,100485.56
2022-09-14T04:20:15.021Z,100490.23
2022-09-14T04:22:43.696Z,100490.66
2022-09-14T04:25:12.704Z,100490.62
2022-09-14T04:27:46.082Z,100487.38
2022-09-14T04:30:20.234Z,100493.42
2022-09-14T04:32:49.245Z,100495.84
2022-09-14T04:35:19.008Z,100496.52
2022-09-14T04:37:47.801Z,100500.69
2022-09-14T04:40:16.870Z,100501.08
2022-09-14T04:42:50.292Z,100503.67
2022-09-14T04:45:28.679Z,100503.14
2022-09-14T04:48:00.862Z,100503.48
2022-09-14T04:50:43.803Z,100505.80
2022-09-14T04:53:12.626Z,100507.05
2022-09-14T04:55:41.326Z,100510.69
2022-09-14T04:58:30.373Z,100509.07
2022-09-14T05:01:04.890Z,100506.73
2022-09-14T05:03:39.627Z,100508.13
2022-09-14T05:06:12.672Z,100505.55
2022-09-14T05:08:42.454Z,100505.41
2022-09-14T05:11:17.055Z,100503.98
2022-09-14T05:13:49.927Z,100499.31
2022-09-14T05:16:23.308Z,100497.73
2022-09-14T05:19:04.254Z,100503.39
2022-09-14T05:21:36.153Z,100501.62
2022-09-14T05:24:14.960Z,100496.23
2022-09-14T05:26:45.110Z,100491.92
2022-09-14T05:29:16.258Z,100497.77
2022-09-14T05:31:46.144Z,100496.73
2022-09-14T05:34:16.679Z,100500.38
2022-09-14T05:36:45.929Z,100502.88
2022-09-14T05:39:14.540Z,100493.56
2022-09-14T05:41:43.073Z,100500.91
2022-09-14T05:44:15.425Z,100498.80
2022-09-14T05:46:44.135Z,100498.88
2022-09-14T05:49:13.002Z,100499.86
2022-09-14T05:51:41.830Z,100501.73
2022-09-14T05:54:11.775Z,100504.30
2022-09-14T05:56:40.805Z,100504.98
2022-09-14T05:59:11.008Z,100505.48
2022-09-14T06:01:40.237Z,100507.77
2022-09-14T06:04:11.157Z,100506.18
2022-09-14T06:06:39.826Z,100508.63
2022-09-14T06:09:08.619Z,100510.42
2022-09-14T06:11:37.190Z,100504.48
2022-09-14T06:14:07.671Z,100503.52
2022-09-14T06:16:36.370Z,100502.67
2022-09-14T06:19:05.395Z,100506.00
2022-09-14T06:21:35.818Z,100507.02
2022-09-14T06:24:04.949Z,100507.20
2022-09-14T06:26:33.649Z,100511.24
2022-09-14T06:29:02.468Z,100508.48
2022-09-14T06:31:31.020Z,100515.34
2022-09-14T06:34:02.055Z,100512.61
2022-09-14T06:36:30.924Z,100509.18
2022-09-14T06:39:00.498Z,100512.15
2022-09-14T06:41:30.944Z,100511.55
2022-09-14T06:44:01.980Z,100519.34
2022-09-14T06:46:33.941Z,100519.96
2022-09-14T06:49:08.285Z,100521.55
2022-09-14T06:51:41.164Z,100519.71
2022-09-14T06:54:12.845Z,100514.62
2022-09-14T06:56:45.161Z,100515.61
2022-09-14T06:59:17.091Z,100516.09
2022-09-14T07:01:46.397Z,100509.92
2022-09-14T07:04:15.061Z,100509.80
2022-09-14T07:06:47.925Z,100512.81
2022-09-14T07:09:19.656Z,100510.51
2022-09-14T07:11:49.426Z,100506.38
2022-09-14T07:14:20.309Z,100503.02
2022-09-14T07:16:48.857Z,100500.50
2022-09-14T07:19:17.344Z,100500.14
2022-09-14T07:21:47.028Z,100496.58
2022-09-14T07:24:15.901Z,100495.60
2022-09-14T07:26:44.614Z,100493.33
2022-09-14T07:29:18.265Z,100494.29
2022-09-14T07:31:54.481Z,100489.08
2022-09-14T07:34:24.047Z,100490.17
2022-09-14T07:36:52.556Z,100483.16
2022-09-14T07:39:21.253Z,100479.55
2022-09-14T07:41:52.298Z,100472.58
2022-09-14T07:44:20.816Z,100464.55
2022-09-14T07:46:49.382Z,100465.91
2022-09-14T07:49:18.425Z,100465.84
2022-09-14T07:51:47.077Z,100459.09
2022-09-14T07:54:18.755Z,100452.55
2022-09-14T07:56:50.797Z,100442.19
2022-09-14T07:59:37.232Z,100440.23
2022-09-14T08:02:11.353Z,100433.34
2022-09-14T08:04:39.948Z,100424.34
2022-09-14T08:07:09.305Z,100419.92
2022-09-14T08:09:39.787Z,100419.15
2022-09-14T08:12:08.410Z,100419.70
2022-09-14T08:14:37.213Z,100416.17
2022-09-14T08:17:05.842Z,100411.33
2022-09-14T08:19:34.357Z,100409.52
2022-09-14T08:22:04.856Z,100414.77
2022-09-14T08:24:33.772Z,100412.48
2022-09-14T08:27:03.284Z,100414.89
2022-09-14T08:29:34.353Z,100412.74
2022-09-14T08:32:03.206Z,100422.66
2022-09-14T08:34:32.782Z,100426.66
2022-09-14T08:37:01.201Z,100435.30
2022-09-14T08:39:29.762Z,100439.13
2022-09-14T08:42:00.659Z,100441.86
2022-09-14T08:44:43.532Z,100444.42
2022-09-14T08:47:22.231Z,100445.37
2022-09-14T08:50:11.580Z,100445.88
2022-09-14T08:52:55.829Z,100450.33
2022-09-14T08:55:34.286Z,100449.13
2022-09-14T08:58:42.671Z,100443.27
2022-09-14T09:01:35.971Z,100436.25
2022-09-14T09:04:20.800Z,100429.05
2022-09-14T09:07:22.318Z,100422.83
2022-09-14T09:09:54.483Z,100421.83
2022-09-14T09:12:54.646Z,100420.95
2022-09-14T09:15:45.379Z,100416.80
2022-09-14T09:18:37.541Z,100414.93
2022-09-14T09:21:24.203Z,100409.91
2022-09-14T09:23:56.489Z,100407.77
2022-09-14T09:26:30.016Z,100405.77
2022-09-14T09:29:01.954Z,100407.92
2022-09-14T09:31:55.034Z,100414.91
2022-09-14T09:34:41.811Z,100421.28
2022-09-14T09:37:26.677Z,100411.83
2022-09-14T09:39:55.327Z,100407.80
2022-09-14T09:42:28.364Z,100408.65
2022-09-14T09:45:06.345Z,100406.52
2022-09-14T09:47:40.452Z,100407.27
2022-09-14T09:50:15.392Z,100402.18
2022-09-14T09:53:03.240Z,100399.72
2022-09-14T09:55:40.010Z,100398.09
2022-09-14T09:58:32.311Z,100392.48
2022-09-14T10:01:12.031Z,100387.23
2022-09-14T10:03:41.421Z,100381.33
2022-09-14T10:06:13.512Z,100389.67
2022-09-14T10:08:45.899Z,100399.88
2022-09-14T10:11:38.450Z,100397.70
2022-09-14T10:14:21.585Z,100395.00
2022-09-14T10:16:50.776Z,100394.41
2022-09-14T10:19:29.384Z,100391.55
2022-09-14T10:22:17.565Z,100378.42
2022-09-14T10:25:21.453Z,100383.77
2022-09-14T10:27:56.318Z,100381.71
2022-09-14T10:30:37.650Z,100381.03
2022-09-14T10:33:11.113Z,100374.67
2022-09-14T10:36:12.169Z,100370.76
2022-09-14T10:38:53.107Z,100361.55
2022-09-14T10:41:45.692Z,100355.90
2022-09-14T10:44:35.388Z,100356.02
2022-09-14T10:47:25.172Z,100347.80
2022-09-14T10:50:08.687Z,100343.77
2022-09-14T10:53:20.359Z,100346.19
2022-09-14T10:56:10.442Z,100346.88
2022-09-14T10:59:15.804Z,100347.05
2022-09-14T11:02:15.393Z,100344.45
2022-09-14T11:05:08.573Z,100345.51
2022-09-14T11:08:01.338Z,100350.11
2022-09-14T11:11:19.712Z,100347.46
2022-09-14T11:14:12.262Z,100348.12
2022-09-14T11:16:55.116Z,100353.23
2022-09-14T11:19:23.389Z,100353.26
2022-09-14T11:22:06.224Z,100359.38
2022-09-14T11:24:46.826Z,100354.21
2022-09-14T11:27:36.094Z,100344.93
2022-09-14T11:30:15.672Z,100342.61
2022-09-14T11:33:11.731Z,100337.90
2022-09-14T11:35:57.004Z,100338.02
2022-09-14T11:38:31.726Z,100335.45
2022-09-14T11:41:17.034Z,100333.77
2022-09-14T11:44:16.292Z,100327.54
2022-09-14T11:47:03.874Z,100323.02
2022-09-14T11:49:59.344Z,100314.71
2022-09-14T11:52:32.420Z,100308.34
2022-09-14T11:55:09.342Z,100314.57
2022-09-14T11:57:38.412Z,100316.95
2022-09-14T12:00:50.375Z,100307.87
2022-09-14T12:03:22.583Z,100301.65
2022-09-14T12:05:51.331Z,100291.63
2022-09-14T12:08:39.910Z,100287.02
2022-09-14T12:11:08.547Z,100281.70
2022-09-14T12:13:38.156Z,100280.77
2022-09-14T12:16:10.539Z,100283.17
2022-09-14T12:18:44.055Z,100284.89
2022-09-14T12:21:26.358Z,100285.71
2022-09-14T12:23:58.175Z,100283.83
2022-09-14T12:26:32.649Z,100288.93
2022-09-14T12:29:29.296Z,100281.98
2022-09-14T12:32:05.412Z,100277.48
2022-09-14T12:34:34.769Z,100275.36
2022-09-14T12:37:32.664Z,100273.58
2022-09-14T12:40:37.175Z,100273.71
2022-09-14T12:43:33.904Z,100265.05
2022-09-14T12:46:34.011Z,100252.04
2022-09-14T12:49:31.877Z,100249.02
2022-09-14T12:52:17.962Z,100241.67
2022-09-14T12:55:09.219Z,100234.77
2022-09-14T12:58:17.161Z,100224.25
2022-09-14T13:00:53.094Z,100221.05
2022-09-14T13:03:49.021Z,100220.65
2022-09-14T13:06:18.993Z,100216.02
2022-09-14T13:08:58.902Z,100214.70
2022-09-14T13:11:41.450Z,100210.89
2022-09-14T13:14:19.978Z,100210.79
2022-09-14T13:16:52.307Z,100212.99
2022-09-14T13:19:31.538Z,100211.10
2022-09-14T13:22:02.960Z,100216.40
2022-09-14T13:24:35.386Z,100212.41
2022-09-14T13:27:05.282Z,100209.66
2022-09-14T13:29:33.965Z,100211.88
2022-09-14T13:32:04.086Z,100215.20
2022-09-14T13:34:39.025Z,100215.08
2022-09-14T13:37:08.098Z,100216.38
2022-09-14T13:39:42.124Z,100218.66
2022-09-14T13:42:10.935Z,100221.67
2022-09-14T13:44:47.148Z,100225.51
2022-09-14T13:47:25.343Z,100224.56
2022-09-14T13:49:56.186Z,100224.42
2022-09-14T13:52:34.296Z,100226.73
2022-09-14T13:55:31.813Z,100226.39
2022-09-14T13:58:19.354Z,100220.27
2022-09-14T14:01:00.287Z,100221.69
2022-09-14T14:03:48.214Z,100217.74
2022-09-14T14:06:35.028Z,100218.33
2022-09-14T14:09:09.624Z,100214.09
2022-09-14T14:11:42.381Z,100205.92
2022-09-14T14:14:16.865Z,100200.59
2022-09-14T14:17:13.369Z,100195.51
2022-09-14T14:19:43.843Z,100202.27
2022-09-14T14:22:15.474Z,100202.31
2022-09-14T14:25:11.715Z,100201.67
2022-09-14T14:27:40.505Z,100200.96
2022-09-14T14:30:20.567Z,100205.89
2022-09-14T14:32:55.397Z,100207.65
2022-09-14T14:35:31.789Z,100209.55
2022-09-14T14:38:00.329Z,100212.02
2022-09-14T14:40:29.178Z,100211.79
2022-09-14T14:43:00.267Z,100207.90
2022-09-14T14:45:32.204Z,100208.61
2022-09-14T14:48:04.989Z,100207.52
2022-09-14T14:50:36.248Z,100206.77
2022-09-14T14:53:05.775Z,100205.39
2022-09-14T14:55:36.184Z,100203.84
2022-09-14T14:58:11.405Z,100205.06
2022-09-14T15:00:40.006Z,100205.59
2022-09-14T15:03:09.055Z,100203.50
2022-09-14T15:05:44.181Z,100206.55
2022-09-14T15:08:15.221Z,100203.19
2022-09-14T15:10:43.952Z,100205.08
2022-09-14T15:13:16.528Z,100203.61
2022-09-14T15:15:45.267Z,100199.61
2022-09-14T15:18:13.854Z,100195.81
2022-09-14T15:20:42.428Z,100200.73
2022-09-14T15:23:14.471Z,100198.60
2022-09-14T15:25:43.215Z,100192.40
2022-09-14T15:28:12.575Z,100192.72
2022-09-14T15:30:41.956Z,100185.51
2022-09-14T15:33:10.816Z,100187.29
2022-09-14T15:35:39.923Z,100188.98
2022-09-14T15:38:08.536Z,100188.59
2022-09-14T15:40:37.877Z,100190.75
2022-09-14T15:43:06.469Z,100188.11
2022-09-14T15:45:35.200Z,100192.14
2022-09-14T15:48:18.882Z,100187.92
2022-09-14T15:50:48.956Z,100187.05
2022-09-14T15:53:18.697Z,100182.36
2022-09-14T15:55:48.157Z,100181.30
2022-09-14T15:58:16.798Z,100182.20
2022-09-14T16:00:45.529Z,100185.50
2022-09-14T16:03:14.035Z,100188.04
2022-09-14T16:05:42.696Z,100186.19
2022-09-14T16:08:11.453Z,100178.54
2022-09-14T16:10:40.062Z,100173.42
2022-09-14T16:13:08.733Z,100173.30
2022-09-14T16:15:37.343Z,100171.38
2022-09-14T16:18:06.124Z,100169.29
2022-09-14T16:20:36.364Z,100169.53
2022-09-14T16:23:05.124Z,100168.14
2022-09-14T16:25:43.415Z,100159.03
2022-09-14T16:28:11.937Z,100160.15
2022-09-14T16:30:40.584Z,100159.39
2022-09-14T16:33:09.335Z,100155.84
2022-09-14T16:35:37.981Z,100156.58
2022-09-14T16:38:06.534Z,100157.08
2022-09-14T16:40:35.944Z,100161.58
2022-09-14T16:43:06.024Z,100162.94
2022-09-14T16:45:34.666Z,100155.90
2022-09-14T16:48:16.619Z,100158.16
2022-09-14T16:50:45.296Z,100154.45
2022-09-14T16:53:14.024Z,100153.73
2022-09-14T16:55:42.780Z,100158.41
2022-09-14T16:58:12.046Z,100159.39
2022-09-14T17:00:44.137Z,100161.67
2022-09-14T17:03:13.371Z,100160.38
2022-09-14T17:05:42.625Z,100156.84
2022-09-14T17:08:11.384Z,100155.42
2022-09-14T17:10:42.890Z,100160.27
2022-09-14T17:13:11.521Z,100161.59
2022-09-14T17:15:40.074Z,100160.26
2022-09-14T17:18:08.698Z,100160.96
2022-09-14T17:20:37.757Z,100161.30
2022-09-14T17:23:06.522Z,100154.63
2022-09-14T17:25:38.348Z,100148.93
2022-09-14T17:28:06.924Z,100146.73
2022-09-14T17:30:35.525Z,100142.31
2022-09-14T17:33:04.458Z,100134.45
2022-09-14T17:35:33.586Z,100135.94
2022-09-14T17:38:04.198Z,100136.61
2022-09-14T17:40:34.737Z,100128.81
2022-09-14T17:43:03.339Z,100126.33
2022-09-14T17:45:50.872Z,100131.73
2022-09-14T17:48:20.234Z,100124.92
2022-09-14T17:50:49.514Z,100126.33
2022-09-14T17:53:18.198Z,100129.59
2022-09-14T17:55:52.286Z,100135.85
2022-09-14T17:58:21.218Z,100127.77
2022-09-14T18:00:50.608Z,100125.84
2022-09-14T18:03:20.077Z,100126.00
2022-09-14T18:05:56.745Z,100131.73
2022-09-14T18:08:25.451Z,100138.34
2022-09-14T18:10:54.073Z,100148.92
2022-09-14T18:13:23.114Z,100150.55
2022-09-14T18:15:58.323Z,100151.35
2022-09-14T18:19:01.313Z,100150.00
2022-09-14T18:21:31.169Z,100156.52
2022-09-14T18:24:02.341Z,100152.25
2022-09-14T18:26:31.348Z,100158.84
2022-09-14T18:29:03.854Z,100162.69
2022-09-14T18:31:32.908Z,100167.17
2022-09-14T18:34:01.822Z,100173.77
2022-09-14T18:36:32.021Z,100179.31
2022-09-14T18:39:01.081Z,100177.57
2022-09-14T18:41:31.660Z,100183.71
2022-09-14T18:44:01.950Z,100183.86
2022-09-14T18:46:31.229Z,100188.79
2022-09-14T18:49:01.964Z,100187.71
2022-09-14T18:51:34.539Z,100190.73
2022-09-14T18:54:06.964Z,100186.77
2022-09-14T18:56:37.088Z,100192.58
2022-09-14T18:59:19.741Z,100182.95
2022-09-14T19:01:48.397Z,100191.47
2022-09-14T19:04:17.121Z,100193.92
2022-09-14T19:06:45.874Z,100191.72
2022-09-14T19:09:14.641Z,100196.30
2022-09-14T19:11:43.270Z,100196.90
2022-09-14T19:14:13.493Z,100198.13
2022-09-14T19:16:42.521Z,100197.59
2022-09-14T19:19:15.031Z,100198.88
2022-09-14T19:21:45.199Z,100197.69
2022-09-14T19:24:16.674Z,100195.66
2022-09-14T19:26:51.732Z,100199.45
2022-09-14T19:29:23.271Z,100195.56
2022-09-14T19:31:53.549Z,100198.73
2022-09-14T19:34:25.635Z,100191.33
2022-09-14T19:36:55.545Z,100192.21
2022-09-14T19:39:25.843Z,100191.80
2022-09-14T19:41:54.498Z,100191.52
2022-09-14T19:44:23.421Z,100187.06
2022-09-14T19:46:52.413Z,100181.55
2022-09-14T19:49:24.496Z,100184.22
2022-09-14T19:51:53.919Z,100174.92
2022-09-14T19:54:23.252Z,100174.99
2022-09-14T19:56:51.951Z,100174.20
2022-09-14T19:59:20.588Z,100174.12
2022-09-14T20:01:49.781Z,100177.73
2022-09-14T20:04:19.136Z,100177.48
2022-09-14T20:06:48.456Z,100184.16
2022-09-14T20:09:21.062Z,100186.08
2022-09-14T20:11:51.732Z,100186.15
2022-09-14T20:14:24.932Z,100185.52
2022-09-14T20:16:58.198Z,100191.81
2022-09-14T20:19:29.697Z,100188.45
2022-09-14T20:21:58.544Z,100187.63
2022-09-14T20:24:31.113Z,100187.52
2022-09-14T20:27:02.296Z,100187.53
2022-09-14T20:29:35.467Z,100181.73
2022-09-14T20:32:06.028Z,100176.77
2022-09-14T20:34:34.721Z,100169.46
2022-09-14T20:37:03.300Z,100160.23
2022-09-14T20:39:36.007Z,100157.53
2022-09-14T20:42:05.692Z,100163.98
2022-09-14T20:44:34.271Z,100160.34
2022-09-14T20:47:02.809Z,100158.06
2022-09-14T20:49:31.366Z,100146.15
2022-09-14T20:52:02.627Z,100136.02
2022-09-14T20:54:31.303Z,100134.50
2022-09-14T20:57:04.066Z,100126.52
2022-09-14T20:59:33.274Z,100129.99
2022-09-14T21:02:09.948Z,100130.96
2022-09-14T21:04:38.628Z,100129.40
2022-09-14T21:07:07.158Z,100136.90
2022-09-14T21:09:35.831Z,100139.14
2022-09-14T21:12:04.828Z,100138.67
2022-09-14T21:14:33.544Z,100140.88
2022-09-14T21:17:02.039Z,100137.14
2022-09-14T21:19:31.248Z,100136.05
2022-09-14T21:21:59.958Z,100140.41
2022-09-14T21:24:28.601Z,100144.25
2022-09-14T21:26:57.645Z,100139.58
2022-09-14T21:29:28.897Z,100138.98
2022-09-14T21:31:59.729Z,100141.31
2022-09-14T21:34:28.314Z,100134.47
2022-09-14T21:36:57.048Z,100128.39
2022-09-14T21:39:27.247Z,100122.45
2022-09-14T21:41:59.344Z,100123.78
2022-09-14T21:44:34.688Z,100124.23
2022-09-14T21:47:04.961Z,100118.86
2022-09-14T21:49:33.640Z,100119.79
2022-09-14T21:52:02.589Z,100113.80
2022-09-14T21:54:31.188Z,100116.37
2022-09-14T21:56:59.944Z,100122.80
2022-09-14T21:59:28.573Z,100122.23
2022-09-14T22:01:57.248Z,100117.59
2022-09-14T22:04:27.045Z,100114.04
2022-09-14T22:06:57.303Z,100114.23
2022-09-14T22:09:28.911Z,100105.38
2022-09-14T22:11:58.027Z,100102.33
2022-09-14T22:14:29.199Z,100094.25
2022-09-14T22:16:57.946Z,100087.40
2022-09-14T22:19:30.662Z,100084.50
2022-09-14T22:21:59.634Z,100085.01
2022-09-14T22:24:37.894Z,100092.58
2022-09-14T22:27:09.835Z,100096.01
2022-09-14T22:29:41.075Z,100092.89
2022-09-14T22:32:11.074Z,100089.48
2022-09-14T22:34:41.778Z,100087.04
2022-09-14T22:37:10.726Z,100089.46
2022-09-14T22:39:58.003Z,100088.84
2022-09-14T22:42:28.044Z,100083.80
2022-09-14T22:44:56.712Z,100086.00
2022-09-14T22:47:25.471Z,100084.04
2022-09-14T22:49:54.126Z,100078.63
2022-09-14T22:52:24.129Z,100071.58
2022-09-14T22:54:52.887Z,100059.94
2022-09-14T22:57:22.692Z,100056.17
2022-09-14T22:59:51.317Z,100055.01
2022-09-14T23:02:19.931Z,100050.17
2022-09-14T23:05:13.777Z,100039.77
2022-09-14T23:07:42.338Z,100037.25
2022-09-14T23:10:10.845Z,100042.67
2022-09-14T23:12:39.537Z,100040.80
2022-09-14T23:15:08.957Z,100039.29
2022-09-14T23:17:37.674Z,100040.96
2022-09-14T23:20:07.167Z,100034.67
2022-09-14T23:22:36.342Z,100035.90
2022-09-14T23:25:05.506Z,100038.80
2022-09-14T23:27:37.310Z,100042.39
2022-09-14T23:30:07.061Z,100045.23
2022-09-14T23:32:35.671Z,100041.60
2022-09-14T23:35:04.896Z,100039.88
2022-09-14T23:37:34.246Z,100040.99
2022-09-14T23:40:03.167Z,100046.73
2022-09-14T23:42:31.972Z,100046.98
2022-09-14T23:45:00.607Z,100045.46
2022-09-14T23:47:29.208Z,100045.79
2022-09-14T23:49:58.161Z,100046.10
2022-09-14T23:52:26.993Z,100051.54
2022-09-14T23:54:56.210Z,100048.91
2022-09-14T23:57:24.828Z,100045.77
2022-09-14T23:59:53.581Z,100050.93
